Time;durP1;ratioP1;P1;durP2;ratioP2;P2;SDS_P1;SDS_P2;PMS_P1;PMS_P2;Temp;Humidity;BMP_temperature;BMP_pressure;BME280_temperature;BME280_humidity;BME280_pressure;Samples;Min_cycle;Max_cycle;Signal;HPM_P1;HPM_P2
2022/01/13 00:00:04;;;;;;;62.00;26.58;;;;;;;2.01;72.41;102374.28;5011051;28;20069;-86
2022/01/13 00:02:34;;;;;;;65.00;24.40;;;;;;;2.00;72.37;102376.03;5003262;28;20442;-85
2022/01/13 00:05:02;;;;;;;61.70;24.77;;;;;;;1.99;72.01;102376.94;5016579;28;20050;-86
2022/01/13 00:07:29;;;;;;;58.47;23.27;;;;;;;1.98;72.49;102371.72;5001118;28;20050;-85
2022/01/13 00:09:56;;;;;;;58.25;24.95;;;;;;;1.97;72.24;102368.22;4998607;28;20061;-82
2022/01/13 00:12:27;;;;;;;64.82;24.95;;;;;;;1.97;72.17;102369.97;5013072;28;20045;-86
2022/01/13 00:18:10;;;;;;;68.05;27.10;;;;;;;1.93;72.39;102385.75;5003680;28;20533;-86
2022/01/13 00:25:54;;;;;;;69.40;26.17;;;;;;;1.89;72.22;102372.69;5003313;28;20042;-85
2022/01/13 00:28:23;;;;;;;57.20;24.95;;;;;;;1.89;72.24;102380.56;4992887;28;20046;-86
2022/01/13 00:30:53;;;;;;;72.90;27.13;;;;;;;1.88;72.33;102379.69;4969077;28;20117;-86
2022/01/13 00:33:24;;;;;;;59.38;26.10;;;;;;;1.86;72.32;102384.09;4978513;28;20453;-85
2022/01/13 00:35:58;;;;;;;73.03;26.98;;;;;;;1.86;72.40;102385.84;4982422;28;20092;-86
2022/01/13 00:38:32;;;;;;;67.22;27.48;;;;;;;1.85;72.30;102381.47;5015857;28;20046;-85
2022/01/13 00:41:00;;;;;;;68.88;26.40;;;;;;;1.84;72.25;102380.59;5008151;28;20166;-82
2022/01/13 00:43:27;;;;;;;65.65;25.98;;;;;;;1.85;72.49;102377.09;4999166;28;20492;-85
2022/01/13 00:45:55;;;;;;;62.42;25.63;;;;;;;1.85;72.54;102384.94;5001420;28;20046;-86
2022/01/13 00:48:22;;;;;;;61.95;26.38;;;;;;;1.85;72.76;102384.94;4986488;28;20061;-85
2022/01/13 00:50:48;;;;;;;67.30;26.42;;;;;;;1.83;72.62;102386.75;4981493;28;20049;-85
2022/01/13 00:53:16;;;;;;;62.78;26.00;;;;;;;1.84;72.64;102387.59;4983515;28;20053;-86
2022/01/13 00:56:05;;;;;;;63.20;26.20;;;;;;;1.83;72.58;102389.38;5034077;28;20064;-86
2022/01/13 00:58:32;;;;;;;64.07;26.20;;;;;;;1.82;72.58;102389.38;5002750;28;20128;-86
2022/01/13 01:01:00;;;;;;;70.95;26.15;;;;;;;1.82;72.85;102386.75;5000219;28;20045;-86
2022/01/13 01:03:27;;;;;;;68.95;27.15;;;;;;;1.82;72.70;102386.75;4998671;28;20413;-86
2022/01/13 01:05:54;;;;;;;67.93;26.75;;;;;;;1.82;72.56;102386.75;4984895;28;20381;-85
2022/01/13 01:08:22;;;;;;;70.05;28.60;;;;;;;1.81;72.64;102388.50;5003733;28;20075;-86
2022/01/13 01:10:50;;;;;;;71.18;26.63;;;;;;;1.80;72.36;102388.50;4982081;28;20043;-85
2022/01/13 01:13:21;;;;;;;64.57;27.45;;;;;;;1.77;72.36;102397.25;5002802;28;20046;-86
2022/01/13 01:15:52;;;;;;;63.30;26.27;;;;;;;1.77;72.24;102399.03;5028575;28;20092;-86
2022/01/13 01:24:16;;;;;;;69.35;27.20;;;;;;;1.70;72.46;102391.22;4994520;28;20053;-86
2022/01/13 01:29:07;;;;;;;72.03;25.83;;;;;;;1.69;72.38;102399.09;5018337;28;20509;-85
2022/01/13 01:31:36;;;;;;;73.25;25.92;;;;;;;1.68;72.33;102386.88;5024684;28;20050;-86
2022/01/13 01:34:21;;;;;;;64.93;26.20;;;;;;;1.67;72.52;102387.78;4997701;28;20164;-85
2022/01/13 01:36:49;;;;;;;66.93;25.63;;;;;;;1.64;72.16;102393.91;4993758;28;20738;-85
2022/01/13 01:39:16;;;;;;;67.95;26.35;;;;;;;1.65;72.44;102381.69;5029441;28;20050;-82
2022/01/13 01:41:45;;;;;;;72.72;27.13;;;;;;;1.63;72.24;102384.34;5001515;28;20046;-85
2022/01/13 01:44:36;;;;;;;65.72;26.30;;;;;;;1.64;72.23;102387.81;5015371;28;20042;-85
2022/01/13 01:47:04;;;;;;;61.00;25.60;;;;;;;1.63;72.21;102389.56;4955008;28;20076;-85
2022/01/13 01:49:38;;;;;;;65.18;26.02;;;;;;;1.64;72.18;102396.53;5003627;28;20504;-85
2022/01/13 01:52:05;;;;;;;67.45;26.77;;;;;;;1.62;72.25;102384.34;4978939;28;20473;-85
2022/01/13 01:54:32;;;;;;;72.43;27.67;;;;;;;1.61;72.34;102395.72;5013619;28;20390;-85
2022/01/13 01:56:59;;;;;;;76.85;26.35;;;;;;;1.61;72.57;102391.31;5030401;28;20393;-85
2022/01/13 01:59:29;;;;;;;71.35;28.05;;;;;;;1.61;72.26;102390.47;5031188;28;20047;-86
2022/01/13 02:01:57;;;;;;;62.13;24.75;;;;;;;1.59;72.27;102395.72;5029829;28;20073;-86
2022/01/13 02:04:26;;;;;;;70.47;25.95;;;;;;;1.59;72.45;102389.63;5012939;28;20043;-85
2022/01/13 02:06:54;;;;;;;65.30;24.38;;;;;;;1.58;72.35;102387.84;4986446;28;20052;-85
2022/01/13 02:09:22;;;;;;;59.75;24.63;;;;;;;1.58;72.40;102390.47;5002938;28;20057;-85
2022/01/13 02:11:54;;;;;;;65.97;23.90;;;;;;;1.55;72.33;102386.13;5000464;28;20046;-86
2022/01/13 02:17:06;;;;;;;60.63;25.05;;;;;;;1.53;72.38;102374.84;4998991;28;20472;-86
2022/01/13 02:19:35;;;;;;;61.45;24.77;;;;;;;1.53;72.38;102374.84;4999735;28;20094;-85
2022/01/13 02:22:03;;;;;;;59.97;24.58;;;;;;;1.51;72.41;102366.97;4968782;28;20045;-85
2022/01/13 02:24:29;;;;;;;65.35;25.35;;;;;;;1.52;72.51;102373.06;5002104;28;20045;-86
2022/01/13 02:26:56;;;;;;;60.10;26.10;;;;;;;1.52;72.56;102366.09;4994736;28;20042;-85
2022/01/13 02:29:23;;;;;;;62.58;24.60;;;;;;;1.50;72.46;102362.63;5002287;28;20037;-85
2022/01/13 02:31:50;;;;;;;68.63;27.67;;;;;;;1.50;72.12;102364.38;4986069;28;20045;-85
2022/01/13 02:34:17;;;;;;;68.47;27.13;;;;;;;1.47;72.35;102362.66;5035752;28;20050;-85
2022/01/13 02:36:46;;;;;;;65.30;25.77;;;;;;;1.48;72.41;102360.91;5015458;28;20060;-85
2022/01/13 02:39:12;;;;;;;68.28;25.77;;;;;;;1.47;72.39;102346.06;5006213;28;20412;-86
2022/01/13 02:41:39;;;;;;;59.80;24.25;;;;;;;1.47;72.33;102346.06;4989073;28;20065;-85
2022/01/13 02:44:14;;;;;;;71.40;25.02;;;;;;;1.47;72.33;102351.31;5013168;28;20049;-86
2022/01/13 02:49:13;;;;;;;56.20;22.35;;;;;;;1.41;72.44;102335.69;4994463;28;20788;-85
2022/01/13 02:51:42;;;;;;;67.97;26.15;;;;;;;1.43;72.56;102341.78;5005013;28;20068;-86
2022/01/13 02:54:08;;;;;;;65.65;24.67;;;;;;;1.42;72.47;102340.88;4994264;28;20481;-85
2022/01/13 02:56:36;;;;;;;60.42;24.48;;;;;;;1.42;72.18;102342.63;5027430;28;20054;-84
2022/01/13 02:59:04;;;;;;;68.72;26.92;;;;;;;1.39;72.09;102330.44;5001544;28;20056;-85
2022/01/13 03:01:31;;;;;;;76.55;27.60;;;;;;;1.42;72.50;102334.78;4969455;28;20054;-85
2022/01/13 03:04:01;;;;;;;75.80;25.73;;;;;;;1.40;72.23;102333.94;4985616;28;20038;-85
2022/01/13 03:06:33;;;;;;;66.30;26.02;;;;;;;1.37;71.91;102337.44;5025422;28;20161;-85
2022/01/13 03:09:00;;;;;;;68.93;25.00;;;;;;;1.35;71.99;102339.22;5030113;28;20508;-86
2022/01/13 03:11:33;;;;;;;68.20;24.77;;;;;;;1.35;72.04;102339.22;4998960;28;20559;-82
2022/01/13 03:14:03;;;;;;;71.10;27.58;;;;;;;1.32;72.12;102339.25;5014109;28;20077;-85
2022/01/13 03:16:30;;;;;;;80.05;29.10;;;;;;;1.33;72.08;102343.63;5000532;28;20046;-86
2022/01/13 03:18:57;;;;;;;68.03;25.10;;;;;;;1.32;72.02;102335.75;5012173;28;20053;-83
2022/01/13 03:21:24;;;;;;;60.47;24.65;;;;;;;1.30;72.21;102338.41;5031859;28;20038;-86
2022/01/13 03:23:51;;;;;;;67.10;26.02;;;;;;;1.29;72.26;102344.50;4993139;28;20099;-85
2022/01/13 03:26:20;;;;;;;61.72;25.90;;;;;;;1.31;72.09;102348.00;4998741;28;20042;-86
2022/01/13 03:28:51;;;;;;;62.47;25.52;;;;;;;1.30;72.32;102344.50;4990106;28;20050;-86
2022/01/13 03:31:20;;;;;;;59.63;24.52;;;;;;;1.30;72.33;102344.50;4998048;28;20457;-85
2022/01/13 03:33:47;;;;;;;58.38;21.95;;;;;;;1.30;72.18;102338.41;4995095;28;20461;-86
2022/01/13 03:36:14;;;;;;;57.85;25.08;;;;;;;1.29;72.08;102341.91;4979545;28;20062;-85
2022/01/13 03:38:41;;;;;;;63.20;25.05;;;;;;;1.28;72.07;102345.41;4978761;28;20065;-85
2022/01/13 03:41:08;;;;;;;66.13;25.80;;;;;;;1.27;72.25;102346.28;4999517;28;21060;-86
2022/01/13 03:43:36;;;;;;;70.13;26.45;;;;;;;1.28;72.45;102350.63;4969754;28;20050;-86
2022/01/13 03:46:05;;;;;;;71.85;26.35;;;;;;;1.27;72.44;102349.78;4997458;28;20054;-85
2022/01/13 03:48:34;;;;;;;65.07;24.40;;;;;;;1.27;72.61;102352.41;5012096;28;20069;-85
2022/01/13 03:51:01;;;;;;;70.97;28.13;;;;;;;1.27;72.14;102349.78;4997140;28;20133;-85
2022/01/13 03:53:28;;;;;;;64.20;24.80;;;;;;;1.28;72.35;102348.03;4994015;28;20108;-85
2022/01/13 03:56:32;;;;;;;62.33;22.85;;;;;;;1.20;72.20;102345.47;5029385;28;20042;-85
2022/01/13 03:59:17;;;;;;;59.88;23.80;;;;;;;1.19;72.40;102337.63;4943378;28;20555;-86
2022/01/13 04:02:04;;;;;;;60.95;23.42;;;;;;;1.17;72.22;102345.50;5000431;28;20050;-85
2022/01/13 04:04:34;;;;;;;58.10;21.35;;;;;;;1.24;72.08;102346.31;5014769;28;20065;-86
2022/01/13 04:07:07;;;;;;;61.83;23.38;;;;;;;1.21;72.09;102348.97;4994371;28;20405;-85
2022/01/13 04:09:34;;;;;;;61.33;25.05;;;;;;;1.22;72.42;102348.97;4999085;28;20057;-82
2022/01/13 04:12:04;;;;;;;63.72;25.67;;;;;;;1.22;72.10;102361.16;4998525;28;20057;-86
2022/01/13 04:14:55;;;;;;;60.00;23.75;;;;;;;1.21;72.25;102362.91;4992928;28;20521;-86
2022/01/13 04:17:23;;;;;;;65.53;23.98;;;;;;;1.20;72.12;102355.94;4965566;28;20137;-85
2022/01/13 04:19:51;;;;;;;59.72;23.58;;;;;;;1.21;72.54;102349.81;4983532;28;20057;-85
2022/01/13 04:22:19;;;;;;;60.97;24.17;;;;;;;1.20;72.18;102347.25;4999922;28;20381;-85
2022/01/13 04:24:49;;;;;;;65.78;23.98;;;;;;;1.20;72.08;102355.94;5018613;28;20053;-83
2022/01/13 04:27:26;;;;;;;61.22;23.90;;;;;;;1.17;72.06;102355.09;4999346;28;20062;-86
2022/01/13 04:32:40;;;;;;;68.18;26.65;;;;;;;1.16;72.04;102354.22;4983561;28;20646;-86
2022/01/13 04:35:09;;;;;;;66.35;26.33;;;;;;;1.16;72.21;102364.69;4962848;28;20066;-85
2022/01/13 04:37:36;;;;;;;62.58;24.35;;;;;;;1.15;72.25;102362.13;4972628;28;20408;-86
2022/01/13 04:40:05;;;;;;;75.43;25.65;;;;;;;1.15;72.18;102360.34;5006124;28;20034;-86
2022/01/13 04:42:36;;;;;;;80.93;28.92;;;;;;;1.14;71.99;102349.88;4988965;28;20516;-86
2022/01/13 04:45:04;;;;;;;78.10;27.08;;;;;;;1.12;71.99;102355.16;4995843;28;20056;-86
2022/01/13 04:47:30;;;;;;;72.43;27.13;;;;;;;1.10;72.03;102359.53;5003232;28;20046;-85
2022/01/13 04:49:57;;;;;;;80.47;28.40;;;;;;;1.11;72.22;102350.78;5001050;28;20439;-86
2022/01/13 04:52:26;;;;;;;78.22;27.83;;;;;;;1.10;72.22;102356.91;4994172;28;20113;-86
2022/01/13 04:54:53;;;;;;;75.82;26.75;;;;;;;1.08;72.50;102363.91;5000677;28;20046;-86
2022/01/13 04:57:20;;;;;;;73.38;27.70;;;;;;;1.03;72.48;102363.94;4988588;28;20046;-86
2022/01/13 04:59:46;;;;;;;82.45;28.13;;;;;;;1.05;72.41;102356.09;5008914;28;20153;-85
2022/01/13 05:02:16;;;;;;;77.78;27.75;;;;;;;1.05;72.71;102356.94;5026092;28;20096;-86
2022/01/13 05:04:43;;;;;;;79.85;28.42;;;;;;;1.05;72.90;102362.19;5030332;28;20041;-86
2022/01/13 05:07:11;;;;;;;75.53;27.20;;;;;;;1.05;72.77;102356.09;4998064;28;20088;-86
2022/01/13 05:09:38;;;;;;;87.05;27.95;;;;;;;1.05;72.72;102362.19;5027084;28;20085;-85
2022/01/13 05:12:05;;;;;;;80.22;28.17;;;;;;;1.05;72.93;102356.94;5000310;28;20049;-85
2022/01/13 05:14:32;;;;;;;95.00;26.85;;;;;;;1.05;72.99;102358.69;4999148;28;20046;-86
2022/01/13 05:17:08;;;;;;;76.38;25.13;;;;;;;1.04;73.05;102363.06;4986361;28;20445;-86
2022/01/13 05:19:46;;;;;;;80.13;26.92;;;;;;;1.04;73.04;102370.03;5004556;28;20047;-86
2022/01/13 05:22:17;;;;;;;74.00;26.42;;;;;;;0.97;73.17;102363.13;5030259;28;21838;-86
2022/01/13 05:24:46;;;;;;;72.32;25.50;;;;;;;0.99;73.21;102372.72;4994857;28;20617;-84
2022/01/13 05:27:19;;;;;;;80.43;25.80;;;;;;;0.97;73.24;102370.97;5015495;28;20449;-86
2022/01/13 05:29:48;;;;;;;;;;;;;;;0.86;73.59;102374.50;5020128;28;20051;-85
2022/01/13 05:32:15;;;;;;;77.28;24.40;;;;;;;0.93;73.45;102359.66;4991142;28;19921;-86
2022/01/13 05:34:42;;;;;;;87.10;29.15;;;;;;;0.97;73.52;102368.38;4980754;28;20042;-85
2022/01/13 05:37:11;;;;;;;84.32;29.20;;;;;;;0.99;73.52;102370.09;5014636;28;20100;-86
2022/01/13 05:39:38;;;;;;;80.40;28.75;;;;;;;1.00;73.66;102368.34;5033597;28;20056;-85
2022/01/13 05:42:05;;;;;;;74.43;29.77;;;;;;;1.01;73.70;102360.47;5019244;28;20094;-88
2022/01/13 05:44:38;;;;;;;80.55;30.00;;;;;;;1.01;73.60;102360.47;5035820;28;20057;-89
2022/01/13 05:47:12;;;;;;;81.70;30.52;;;;;;;1.01;73.48;102370.06;4987420;28;21069;-89
2022/01/13 05:57:42;;;;;;;82.38;26.95;;;;;;;0.90;73.35;102378.00;4968175;28;20284;-86
2022/01/13 06:00:11;;;;;;;80.47;27.70;;;;;;;0.92;73.34;102391.94;5002502;28;20391;-87
2022/01/13 06:02:38;;;;;;;86.28;28.17;;;;;;;0.91;73.55;102387.56;5014448;28;20046;-87
2022/01/13 06:05:07;;;;;;;117.65;25.88;;;;;;;0.92;73.41;102388.47;5014509;28;20097;-89
2022/01/13 06:07:34;;;;;;;100.30;25.70;;;;;;;0.88;73.33;102387.59;4982136;28;20054;-87
2022/01/13 06:10:01;;;;;;;97.65;28.63;;;;;;;0.86;73.35;102392.81;5018961;28;20049;-88
2022/01/13 06:12:33;;;;;;;69.72;24.20;;;;;;;0.84;73.29;102391.09;5001433;28;20042;-88
2022/01/13 06:15:01;;;;;;;81.63;25.65;;;;;;;0.80;73.36;102397.25;5020454;28;20493;-87
2022/01/13 06:17:28;;;;;;;90.07;22.67;;;;;;;0.81;73.40;102393.75;5012978;28;20050;-89
2022/01/13 06:19:59;;;;;;;69.60;23.80;;;;;;;0.76;73.45;102398.13;4988376;28;20133;-86
2022/01/13 06:22:26;;;;;;;59.17;22.15;;;;;;;0.77;73.42;102399.91;5016351;28;20042;-89
2022/01/13 06:24:53;;;;;;;82.97;25.08;;;;;;;0.76;73.44;102399.00;5004883;28;20500;-87
2022/01/13 06:27:22;;;;;;;64.82;20.63;;;;;;;0.76;73.22;102399.00;4983172;28;20053;-88
2022/01/13 06:29:51;;;;;;;56.22;22.52;;;;;;;0.77;73.43;102402.50;4965718;28;20048;-90
2022/01/13 06:32:19;;;;;;;63.70;23.20;;;;;;;0.76;73.37;102404.22;5020405;28;20050;-86
2022/01/13 06:34:46;;;;;;;67.22;22.58;;;;;;;0.77;73.53;102406.00;5032407;28;20060;-85
2022/01/13 06:37:13;;;;;;;67.35;24.30;;;;;;;0.78;73.41;102401.63;5001875;28;20052;-88
2022/01/13 06:39:42;;;;;;;70.43;22.70;;;;;;;0.78;73.45;102409.47;5004271;28;20073;-89
2022/01/13 06:42:09;;;;;;;59.10;22.75;;;;;;;0.77;73.56;102406.00;4995283;28;20048;-88
2022/01/13 06:44:36;;;;;;;65.43;23.35;;;;;;;0.78;73.62;102412.94;5005061;28;20501;-88
2022/01/13 06:47:04;;;;;;;69.05;25.48;;;;;;;0.77;73.73;102411.22;5023396;28;20050;-89
2022/01/13 06:49:32;;;;;;;63.28;24.15;;;;;;;0.78;73.58;102418.19;5016294;28;20045;-88
2022/01/13 06:51:59;;;;;;;70.85;24.10;;;;;;;0.78;73.46;102418.19;5027447;28;20048;-89
2022/01/13 06:54:26;;;;;;;63.58;24.25;;;;;;;0.78;73.61;102419.94;5028595;28;20061;-89
2022/01/13 06:56:54;;;;;;;59.22;23.63;;;;;;;0.77;73.43;102423.44;4993760;28;20057;-90
2022/01/13 06:59:21;;;;;;;67.18;22.63;;;;;;;0.76;73.61;102426.91;5031987;28;20042;-88
2022/01/13 07:01:49;;;;;;;71.28;25.30;;;;;;;0.77;73.39;102421.69;4984289;28;20046;-88
2022/01/13 07:04:17;;;;;;;74.38;26.08;;;;;;;0.77;73.51;102432.13;4969712;28;20050;-89
2022/01/13 07:06:46;;;;;;;75.70;25.80;;;;;;;0.76;73.50;102433.00;5024132;28;20050;-88
2022/01/13 07:09:15;;;;;;;74.55;25.83;;;;;;;0.75;73.44;102436.50;4979426;28;20050;-88
2022/01/13 07:11:46;;;;;;;72.00;24.52;;;;;;;0.74;73.53;102436.50;5000665;28;20092;-85
2022/01/13 07:14:13;;;;;;;77.53;25.10;;;;;;;0.75;73.70;102436.50;4981051;28;20473;-85
2022/01/13 07:16:41;;;;;;;71.95;24.27;;;;;;;0.75;73.64;102435.66;4997409;28;20413;-88
2022/01/13 07:19:11;;;;;;;68.57;27.33;;;;;;;0.75;73.36;102439.13;5000432;28;20165;-88
2022/01/13 07:21:42;;;;;;;79.60;27.33;;;;;;;0.73;73.38;102440.88;4990372;28;20048;-88
2022/01/13 07:24:09;;;;;;;72.28;25.58;;;;;;;0.71;73.60;102444.38;5013499;28;20725;-88
2022/01/13 07:26:36;;;;;;;76.53;25.65;;;;;;;0.72;73.57;102444.38;5017597;28;20052;-88
2022/01/13 07:29:04;;;;;;;69.38;25.65;;;;;;;0.73;73.53;102450.47;4993954;28;20128;-87
2022/01/13 07:31:31;;;;;;;60.47;25.50;;;;;;;0.73;73.69;102453.94;5016849;28;20101;-87
2022/01/13 07:33:58;;;;;;;68.45;25.17;;;;;;;0.75;73.53;102451.34;4993991;28;20046;-87
2022/01/13 07:36:25;;;;;;;69.50;28.17;;;;;;;0.75;73.73;102444.34;4995279;28;20052;-87
2022/01/13 07:38:51;;;;;;;76.00;27.52;;;;;;;0.77;73.47;102442.59;4975338;28;20042;-85
2022/01/13 07:41:19;;;;;;;83.13;28.75;;;;;;;0.78;73.58;102440.84;5011768;28;20383;-87
2022/01/13 07:43:49;;;;;;;86.78;28.33;;;;;;;0.76;73.71;102433.00;5026120;28;20061;-88
2022/01/13 07:46:17;;;;;;;73.35;25.92;;;;;;;0.78;73.66;102430.38;4992365;28;20041;-88
2022/01/13 07:48:43;;;;;;;75.03;27.33;;;;;;;0.77;73.57;102431.28;5033916;28;20501;-86
2022/01/13 07:51:10;;;;;;;62.50;25.08;;;;;;;0.75;73.34;102427.78;5028543;28;20052;-86
2022/01/13 07:53:37;;;;;;;73.03;26.88;;;;;;;0.76;73.38;102427.78;5008623;28;20092;-85
2022/01/13 07:56:04;;;;;;;70.30;24.77;;;;;;;0.76;73.25;102435.63;4993855;28;20049;-86
2022/01/13 07:58:31;;;;;;;63.30;23.70;;;;;;;0.76;73.30;102438.22;5000731;28;20046;-87
2022/01/13 08:00:57;;;;;;;83.30;27.48;;;;;;;0.75;73.33;102439.13;5017696;28;20058;-83
2022/01/13 08:03:24;;;;;;;73.78;26.13;;;;;;;0.75;73.51;102435.66;5016523;28;20048;-86
2022/01/13 08:05:51;;;;;;;82.47;27.98;;;;;;;0.73;73.21;102440.88;5020586;28;20069;-87
2022/01/13 08:08:18;;;;;;;83.30;29.92;;;;;;;0.70;73.20;102445.25;4986664;28;20043;-87
2022/01/13 08:10:45;;;;;;;83.05;29.27;;;;;;;0.70;73.24;102443.50;4958253;28;20108;-87
2022/01/13 08:13:11;;;;;;;87.53;28.33;;;;;;;0.70;73.29;102432.19;4999022;28;20046;-88
2022/01/13 08:15:40;;;;;;;79.40;28.85;;;;;;;0.71;73.26;102442.63;5030358;28;20046;-89
2022/01/13 08:20:54;;;;;;;99.18;30.27;;;;;;;0.62;73.39;102440.94;4993069;28;20042;-87
2022/01/13 08:23:20;;;;;;;72.40;25.98;;;;;;;0.63;73.32;102432.19;4993617;28;20062;-87
2022/01/13 08:25:47;;;;;;;68.72;25.95;;;;;;;0.67;73.34;102445.28;4972295;28;20043;-89
2022/01/13 08:28:14;;;;;;;78.50;26.17;;;;;;;0.67;73.47;102435.69;4997690;28;20138;-88
2022/01/13 08:30:41;;;;;;;78.90;27.00;;;;;;;0.68;73.55;102433.94;4992673;28;20050;-88
2022/01/13 08:33:07;;;;;;;84.55;29.38;;;;;;;0.71;73.69;102433.91;4994974;28;20080;-87
2022/01/13 08:35:35;;;;;;;82.30;27.40;;;;;;;0.72;73.76;102435.66;4989785;28;20046;-86
2022/01/13 08:38:08;;;;;;;88.03;28.35;;;;;;;0.69;73.76;102423.47;4999123;28;20400;-85
2022/01/13 08:40:35;;;;;;;94.40;30.23;;;;;;;0.70;73.61;102432.19;4994969;28;20496;-87
2022/01/13 08:43:03;;;;;;;90.10;28.95;;;;;;;0.73;73.79;102438.25;4987453;28;20045;-88
2022/01/13 08:45:30;;;;;;;86.68;28.80;;;;;;;0.74;73.81;102437.41;5009760;28;20728;-86
2022/01/13 08:47:56;;;;;;;86.22;29.88;;;;;;;0.75;73.96;102438.25;5013598;28;20037;-87
2022/01/13 08:50:23;;;;;;;85.00;28.98;;;;;;;0.76;73.86;102442.59;4996315;28;20138;-87
2022/01/13 08:52:50;;;;;;;95.03;31.20;;;;;;;0.76;73.98;102442.59;4987416;28;20424;-87
2022/01/13 08:55:17;;;;;;;91.78;30.13;;;;;;;0.78;73.78;102448.69;5031952;28;20069;-88
2022/01/13 08:57:44;;;;;;;95.00;28.75;;;;;;;0.77;73.84;102439.13;5017915;28;21689;-88
2022/01/13 09:00:11;;;;;;;88.05;29.02;;;;;;;0.77;73.80;102446.97;5013676;28;20042;-88
2022/01/13 09:02:40;;;;;;;88.55;28.67;;;;;;;0.78;73.65;102451.31;4979516;28;20489;-88
2022/01/13 09:05:07;;;;;;;77.07;27.05;;;;;;;0.77;73.75;102450.44;5015205;28;20100;-86
2022/01/13 09:07:34;;;;;;;94.30;30.88;;;;;;;0.77;73.71;102452.19;4999381;28;20509;-87
2022/01/13 09:10:04;;;;;;;92.15;29.67;;;;;;;0.78;73.77;102448.69;5031203;28;20039;-86
2022/01/13 09:12:31;;;;;;;91.22;30.98;;;;;;;0.77;73.68;102454.81;5019735;28;20052;-86
2022/01/13 09:15:03;;;;;;;89.65;28.83;;;;;;;0.78;73.60;102460.03;5017834;28;20474;-86
2022/01/13 09:17:31;;;;;;;97.57;32.60;;;;;;;0.78;73.71;102456.53;5033042;28;20516;-87
2022/01/13 09:19:57;;;;;;;98.88;30.77;;;;;;;0.80;73.65;102449.56;4979290;28;20056;-85
2022/01/13 09:22:24;;;;;;;82.63;30.20;;;;;;;0.80;73.71;102449.56;5004300;28;20042;-86
2022/01/13 09:24:51;;;;;;;85.07;30.27;;;;;;;0.82;73.90;102445.19;5003371;28;20125;-86
2022/01/13 09:27:17;;;;;;;80.95;28.23;;;;;;;0.84;73.66;102451.25;5029162;28;20049;-87
2022/01/13 09:29:44;;;;;;;86.45;29.83;;;;;;;0.85;73.95;102447.78;5017663;28;20042;-86
2022/01/13 09:32:14;;;;;;;98.15;33.40;;;;;;;0.88;73.87;102452.13;5000727;28;20046;-85
2022/01/13 09:34:43;;;;;;;101.38;32.85;;;;;;;0.90;73.96;102439.91;4999243;28;20064;-85
2022/01/13 09:37:11;;;;;;;88.70;33.13;;;;;;;0.90;73.80;102442.53;5013298;28;20062;-88
2022/01/13 09:39:39;;;;;;;94.45;31.65;;;;;;;0.93;73.82;102443.38;5029535;28;20050;-85
2022/01/13 09:42:07;;;;;;;100.90;32.67;;;;;;;0.96;73.63;102432.00;4974678;28;20042;-85
2022/01/13 09:44:34;;;;;;;90.05;32.60;;;;;;;0.97;73.89;102436.38;4950749;28;20039;-86
2022/01/13 09:47:04;;;;;;;107.72;35.90;;;;;;;0.98;73.64;102438.97;4951255;28;20050;-85
2022/01/13 09:49:31;;;;;;;107.03;36.90;;;;;;;1.00;73.82;102439.84;5011800;28;20054;-86
2022/01/13 09:51:58;;;;;;;106.53;35.13;;;;;;;1.00;73.96;102438.97;5001666;28;20041;-86
2022/01/13 09:54:24;;;;;;;97.45;32.58;;;;;;;1.01;73.76;102433.72;5015843;28;20462;-87
2022/01/13 09:56:51;;;;;;;95.70;33.70;;;;;;;1.01;73.67;102438.94;5010802;28;20096;-86
2022/01/13 09:59:19;;;;;;;99.65;35.50;;;;;;;1.01;73.97;102448.53;4986128;28;20046;-84
2022/01/13 10:01:45;;;;;;;101.45;33.25;;;;;;;0.98;73.89;102452.06;4976609;28;20386;-86
2022/01/13 10:04:13;;;;;;;96.53;34.60;;;;;;;0.87;74.46;102446.03;4998115;28;20054;-85
2022/01/13 10:06:47;;;;;;;115.78;36.55;;;;;;;0.95;74.29;102441.63;4997860;28;20061;-87
2022/01/13 10:09:15;;;;;;;96.55;32.90;;;;;;;0.97;74.23;102450.31;4983419;28;20054;-86
2022/01/13 10:11:53;;;;;;;100.30;31.85;;;;;;;0.99;74.05;102440.72;5002680;28;20046;-86
2022/01/13 10:17:01;;;;;;;107.40;35.22;;;;;;;1.05;74.29;102440.69;4968603;28;20054;-86
2022/01/13 10:19:36;;;;;;;103.30;33.58;;;;;;;1.09;74.19;102441.50;4997628;28;20078;-85
2022/01/13 10:22:11;;;;;;;93.78;33.28;;;;;;;1.10;74.43;102445.88;5000221;28;20617;-85
2022/01/13 10:24:43;;;;;;;108.30;35.08;;;;;;;1.13;74.24;102437.13;5012802;28;20050;-85
2022/01/13 10:27:15;;;;;;;105.30;35.08;;;;;;;1.13;74.36;102434.53;4999700;28;20575;-85
2022/01/13 10:29:47;;;;;;;104.20;33.92;;;;;;;1.15;74.32;102433.63;4998802;28;20042;-83
2022/01/13 10:32:17;;;;;;;;;;;;;;;1.05;74.54;102429.34;4998588;28;20477;-85
2022/01/13 10:34:47;;;;;;;108.00;34.60;;;;;;;1.17;74.35;102436.22;5031954;28;19932;-86
2022/01/13 10:37:19;;;;;;;90.38;32.08;;;;;;;1.18;74.18;102428.38;4996644;28;20493;-85
2022/01/13 10:39:57;;;;;;;102.03;36.03;;;;;;;1.21;74.37;102430.09;4985639;28;20042;-85
2022/01/13 10:45:07;;;;;;;105.72;38.22;;;;;;;1.29;74.45;102412.56;5004931;28;20038;-85
2022/01/13 10:47:35;;;;;;;105.35;36.22;;;;;;;1.33;74.70;102416.03;4997436;28;20057;-85
2022/01/13 10:50:06;;;;;;;109.78;38.58;;;;;;;1.33;74.49;102414.28;5004332;28;20038;-86
2022/01/13 10:52:33;;;;;;;116.53;39.85;;;;;;;1.36;74.50;102418.63;5009430;28;20409;-84
2022/01/13 10:55:08;;;;;;;113.03;39.25;;;;;;;1.35;74.40;102422.09;4981701;28;20054;-84
2022/01/13 10:57:49;;;;;;;118.40;39.03;;;;;;;1.41;74.56;102427.31;5007776;28;20053;-87
2022/01/13 11:00:24;;;;;;;117.45;40.53;;;;;;;1.39;74.45;102416.84;5011651;28;20049;-86
2022/01/13 11:03:24;;;;;;;109.38;38.78;;;;;;;1.34;75.02;102428.25;5013884;28;20453;-85
2022/01/13 11:05:58;;;;;;;107.28;37.00;;;;;;;1.73;78.43;102425.25;4932503;28;20050;-88
2022/01/13 11:08:41;;;;;;;117.05;40.58;;;;;;;1.73;76.21;102422.63;4985965;28;20493;-89
2022/01/13 11:11:18;;;;;;;99.82;37.97;;;;;;;1.74;75.49;102413.88;5003465;28;20046;-90
2022/01/13 11:13:56;;;;;;;103.32;38.47;;;;;;;1.70;75.15;102414.78;5017710;28;20045;-89
2022/01/13 11:16:24;;;;;;;103.55;38.67;;;;;;;1.73;75.17;102417.41;5042397;28;20046;-86
2022/01/13 11:18:52;;;;;;;106.10;39.75;;;;;;;1.73;75.10;102414.78;5051782;28;20046;-87
2022/01/13 11:21:18;;;;;;;95.93;34.58;;;;;;;1.75;75.01;102425.22;5042675;28;20537;-90
2022/01/13 11:23:49;;;;;;;104.10;36.90;;;;;;;1.74;74.62;102413.88;5015903;28;20046;-90
2022/01/13 11:26:41;;;;;;;92.45;33.95;;;;;;;1.78;74.94;102414.75;5040318;27;20703;-82
2022/01/13 11:29:08;;;;;;;85.97;32.90;;;;;;;1.81;74.89;102422.56;5022050;28;20046;-82
2022/01/13 11:31:35;;;;;;;97.38;35.60;;;;;;;1.82;74.48;102421.66;5011321;28;20061;-82
2022/01/13 11:34:02;;;;;;;88.40;34.92;;;;;;;1.85;74.35;102420.75;4987225;28;20060;-82
2022/01/13 11:36:29;;;;;;;94.55;33.38;;;;;;;1.86;74.67;102417.28;4983027;28;20106;-82
2022/01/13 11:39:02;;;;;;;93.32;34.58;;;;;;;1.86;74.02;102418.13;5005177;28;20051;-82
2022/01/13 11:41:29;;;;;;;;;;;;;;;1.78;74.17;102416.47;5016640;28;20053;-82
2022/01/13 11:44:20;;;;;;;83.05;32.30;;;;;;;1.84;74.29;102412.03;5019131;28;19922;-82
2022/01/13 11:46:49;;;;;;;90.20;33.75;;;;;;;1.94;74.50;102405.81;5015598;28;20497;-82
2022/01/13 11:49:23;;;;;;;87.22;34.60;;;;;;;2.00;74.38;102409.25;5004308;28;20111;-82
2022/01/13 11:52:00;;;;;;;85.25;32.45;;;;;;;2.04;74.12;102405.72;5001646;28;22384;-82
2022/01/13 11:54:32;;;;;;;94.53;33.08;;;;;;;2.08;74.24;102399.53;5001963;28;20046;-82
2022/01/13 11:57:21;;;;;;;80.20;31.65;;;;;;;2.14;73.96;102402.09;4943880;28;20042;-82
2022/01/13 11:59:54;;;;;;;90.35;33.30;;;;;;;2.12;73.87;102394.25;5015644;28;20126;-82
2022/01/13 12:02:23;;;;;;;88.55;32.15;;;;;;;2.18;74.25;102388.06;4971155;28;20128;-82
2022/01/13 12:05:00;;;;;;;89.63;32.92;;;;;;;2.13;73.98;102385.47;5002314;28;20529;-82
2022/01/13 12:07:33;;;;;;;81.63;32.05;;;;;;;2.19;73.86;102389.81;4985193;28;20424;-82